Time;durP1;ratioP1;P1;durP2;ratioP2;P2;SDS_P1;SDS_P2;PMS_P1;PMS_P2;Temp;Humidity;BMP_temperature;BMP_pressure;BME280_temperature;BME280_humidity;BME280_pressure;Samples;Min_cycle;Max_cycle;Signal;HPM_P1;HPM_P2
2021/12/27 00:01:38;;;;;;;33.13;3.00;;;;;;;;;;5012292;28;20062;-64
2021/12/27 00:04:10;;;;;;;19.15;2.90;;;;;;;;;;5012438;28;20050;-63
2021/12/27 00:06:41;;;;;;;24.23;2.40;;;;;;;;;;5012038;28;20057;-63
2021/12/27 00:09:11;;;;;;;22.77;2.45;;;;;;;;;;5000564;28;20456;-64
2021/12/27 00:11:42;;;;;;;31.00;3.42;;;;;;;;;;5031762;28;20064;-62
2021/12/27 00:14:13;;;;;;;31.58;3.08;;;;;;;;;;5031843;28;20057;-64
2021/12/27 00:16:44;;;;;;;16.65;2.72;;;;;;;;;;5015837;28;20057;-64
2021/12/27 00:19:14;;;;;;;22.27;2.83;;;;;;;;;;5018013;28;20060;-63
2021/12/27 00:21:45;;;;;;;20.88;2.72;;;;;;;;;;5018299;28;20060;-65
2021/12/27 00:24:16;;;;;;;15.85;2.53;;;;;;;;;;5035140;28;20057;-63
2021/12/27 00:26:48;;;;;;;16.17;3.15;;;;;;;;;;5016132;28;20050;-64
2021/12/27 00:29:18;;;;;;;23.35;2.90;;;;;;;;;;4992111;28;20157;-64
2021/12/27 00:31:49;;;;;;;23.40;3.75;;;;;;;;;;5003559;28;20058;-66
2021/12/27 00:34:20;;;;;;;30.23;3.50;;;;;;;;;;5011551;28;20053;-63
2021/12/27 00:36:50;;;;;;;19.40;2.25;;;;;;;;;;4971802;28;20055;-63
2021/12/27 00:39:20;;;;;;;19.98;2.47;;;;;;;;;;4972706;28;20062;-63
2021/12/27 00:41:51;;;;;;;21.73;3.17;;;;;;;;;;4933695;29;20052;-63
2021/12/27 00:44:21;;;;;;;18.10;2.28;;;;;;;;;;4933364;29;20058;-63
2021/12/27 00:46:51;;;;;;;19.33;2.65;;;;;;;;;;4934325;29;20064;-63
2021/12/27 00:49:22;;;;;;;23.17;2.67;;;;;;;;;;4914571;29;20126;-63
2021/12/27 00:51:53;;;;;;;18.50;3.05;;;;;;;;;;4915222;29;20167;-64
2021/12/27 00:54:24;;;;;;;14.10;2.47;;;;;;;;;;4914572;29;20056;-67
2021/12/27 00:56:54;;;;;;;23.23;2.58;;;;;;;;;;4933545;29;20059;-65
2021/12/27 00:59:24;;;;;;;23.65;3.50;;;;;;;;;;4951987;28;20058;-63
2021/12/27 01:01:56;;;;;;;16.23;2.30;;;;;;;;;;4952734;28;20059;-66
2021/12/27 01:04:27;;;;;;;22.23;3.33;;;;;;;;;;4942388;28;20055;-64
2021/12/27 01:06:57;;;;;;;23.73;3.05;;;;;;;;;;4952654;29;20088;-63
2021/12/27 01:10:03;;;;;;;19.65;2.45;;;;;;;;;;4952730;28;20078;-64
2021/12/27 01:12:47;;;;;;;14.15;2.78;;;;;;;;;;4952568;29;20459;-63
2021/12/27 01:17:51;;;;;;;28.17;2.88;;;;;;;;;;4971638;28;20058;-63
2021/12/27 01:20:23;;;;;;;21.80;3.75;;;;;;;;;;4952092;29;20416;-71
2021/12/27 01:22:55;;;;;;;17.63;2.72;;;;;;;;;;4935651;29;20067;-70
2021/12/27 01:25:26;;;;;;;16.10;2.92;;;;;;;;;;4933337;29;20051;-64
2021/12/27 01:27:56;;;;;;;14.70;2.60;;;;;;;;;;4934143;29;20051;-68
2021/12/27 01:30:28;;;;;;;22.52;2.40;;;;;;;;;;4952327;29;20055;-65
2021/12/27 01:33:01;;;;;;;23.17;2.60;;;;;;;;;;4913746;29;20048;-67
2021/12/27 01:35:34;;;;;;;21.08;2.92;;;;;;;;;;4913907;29;20080;-64
2021/12/27 01:38:04;;;;;;;22.02;2.92;;;;;;;;;;4913780;29;20064;-67
2021/12/27 01:40:35;;;;;;;27.95;3.05;;;;;;;;;;4913821;29;20048;-64
2021/12/27 01:43:11;;;;;;;18.92;3.10;;;;;;;;;;4946401;29;20071;-64
2021/12/27 01:45:50;;;;;;;24.83;3.45;;;;;;;;;;4931646;29;20059;-63
2021/12/27 01:48:23;;;;;;;;;;;;;;;;;;4932195;29;20051;-63
2021/12/27 01:50:55;;;;;;;15.00;3.25;;;;;;;;;;4932827;29;19930;-65
2021/12/27 01:53:28;;;;;;;19.73;3.08;;;;;;;;;;4932156;29;20055;-70
2021/12/27 01:55:59;;;;;;;16.77;3.10;;;;;;;;;;4885606;29;20562;-63
2021/12/27 01:58:30;;;;;;;15.98;3.30;;;;;;;;;;4959453;28;20050;-63
2021/12/27 02:01:03;;;;;;;18.80;2.72;;;;;;;;;;4970841;28;20061;-64
2021/12/27 02:03:35;;;;;;;17.05;2.85;;;;;;;;;;4951482;29;20070;-64
2021/12/27 02:06:08;;;;;;;14.57;3.53;;;;;;;;;;4935619;29;20400;-64
2021/12/27 02:08:41;;;;;;;25.15;3.25;;;;;;;;;;4951644;29;20534;-64
2021/12/27 02:11:15;;;;;;;18.95;3.72;;;;;;;;;;4906065;29;20071;-67
2021/12/27 02:13:46;;;;;;;18.38;3.58;;;;;;;;;;4932092;29;20070;-64
2021/12/27 02:16:22;;;;;;;16.50;2.90;;;;;;;;;;4951302;29;20054;-64
2021/12/27 02:18:53;;;;;;;13.07;3.10;;;;;;;;;;4936365;29;20055;-68
2021/12/27 02:21:23;;;;;;;22.92;2.42;;;;;;;;;;4932036;29;20059;-64
2021/12/27 02:23:57;;;;;;;15.35;2.67;;;;;;;;;;4907964;29;20078;-64
2021/12/27 02:26:27;;;;;;;25.48;3.35;;;;;;;;;;4913145;29;20063;-65
2021/12/27 02:28:58;;;;;;;26.08;4.13;;;;;;;;;;4913047;29;20171;-63
2021/12/27 02:31:29;;;;;;;15.70;2.63;;;;;;;;;;4912903;29;20067;-66
2021/12/27 02:33:59;;;;;;;21.08;3.03;;;;;;;;;;4901297;29;20056;-64
2021/12/27 02:36:29;;;;;;;18.75;2.90;;;;;;;;;;4931609;29;20060;-64
2021/12/27 02:39:00;;;;;;;17.83;3.00;;;;;;;;;;4943629;29;20122;-65
2021/12/27 02:41:31;;;;;;;15.40;3.63;;;;;;;;;;4950612;29;20062;-64
2021/12/27 02:44:01;;;;;;;13.88;2.80;;;;;;;;;;4950648;29;20069;-64
2021/12/27 02:46:31;;;;;;;16.13;3.05;;;;;;;;;;4950688;29;20051;-64
2021/12/27 02:49:02;;;;;;;17.60;3.40;;;;;;;;;;4950403;29;20055;-66
2021/12/27 02:51:33;;;;;;;13.52;2.55;;;;;;;;;;4950414;29;20059;-67
2021/12/27 02:54:03;;;;;;;20.30;2.47;;;;;;;;;;4950572;29;20514;-64
2021/12/27 02:56:35;;;;;;;18.27;3.10;;;;;;;;;;4931842;28;20059;-66
2021/12/27 02:59:06;;;;;;;16.55;3.58;;;;;;;;;;4973261;28;20414;-66
2021/12/27 03:01:36;;;;;;;12.77;2.40;;;;;;;;;;4999875;28;20065;-64
2021/12/27 03:04:07;;;;;;;12.75;2.63;;;;;;;;;;5009075;28;20130;-65
2021/12/27 03:06:37;;;;;;;15.65;3.63;;;;;;;;;;4992748;28;20054;-64
2021/12/27 03:09:08;;;;;;;19.10;3.10;;;;;;;;;;5008880;28;20387;-64
2021/12/27 03:11:39;;;;;;;10.13;2.63;;;;;;;;;;4988929;28;20054;-64
2021/12/27 03:14:09;;;;;;;14.68;2.72;;;;;;;;;;4988957;28;20059;-67
2021/12/27 03:16:40;;;;;;;9.18;3.47;;;;;;;;;;4989148;28;20062;-65
2021/12/27 03:19:12;;;;;;;12.88;2.70;;;;;;;;;;4979429;28;20074;-64
2021/12/27 03:21:42;;;;;;;11.60;3.03;;;;;;;;;;4999089;28;20050;-64
2021/12/27 03:24:12;;;;;;;14.80;3.20;;;;;;;;;;5027900;28;20049;-63
2021/12/27 03:26:43;;;;;;;14.55;2.92;;;;;;;;;;5038828;28;20053;-65
2021/12/27 03:29:14;;;;;;;15.05;3.47;;;;;;;;;;5008335;28;20477;-65
2021/12/27 03:31:44;;;;;;;13.93;2.80;;;;;;;;;;5008453;28;20069;-65
2021/12/27 03:37:50;;;;;;;12.93;3.13;;;;;;;;;;4937029;28;20051;-67
2021/12/27 03:40:22;;;;;;;23.35;3.30;;;;;;;;;;4927446;29;20051;-65
2021/12/27 03:42:53;;;;;;;20.77;4.50;;;;;;;;;;4892272;29;20417;-64
2021/12/27 03:45:27;;;;;;;22.83;3.58;;;;;;;;;;4930847;29;20048;-67
2021/12/27 03:47:58;;;;;;;12.07;2.67;;;;;;;;;;4949618;28;20059;-64
2021/12/27 03:50:29;;;;;;;16.60;4.38;;;;;;;;;;4950139;28;20416;-67
2021/12/27 03:53:00;;;;;;;20.35;4.80;;;;;;;;;;4949738;28;20059;-64
2021/12/27 03:55:31;;;;;;;12.73;3.83;;;;;;;;;;4950191;28;20067;-65
2021/12/27 03:58:11;;;;;;;11.07;3.58;;;;;;;;;;4949915;28;20427;-65
2021/12/27 04:01:02;;;;;;;22.25;3.72;;;;;;;;;;4950153;28;20070;-65
2021/12/27 04:03:33;;;;;;;;;;;;;;;;;;4950484;28;20099;-72
2021/12/27 04:06:03;;;;;;;11.30;4.40;;;;;;;;;;4905826;28;20358;-65
2021/12/27 04:08:33;;;;;;;12.23;3.75;;;;;;;;;;4953174;28;20179;-65
2021/12/27 04:11:04;;;;;;;16.25;4.32;;;;;;;;;;4956333;28;20130;-65
2021/12/27 04:13:35;;;;;;;18.98;4.75;;;;;;;;;;4992250;28;20127;-65
2021/12/27 04:16:06;;;;;;;19.23;4.38;;;;;;;;;;4992378;28;20062;-64
2021/12/27 04:18:36;;;;;;;18.45;3.95;;;;;;;;;;4967469;28;20052;-64
2021/12/27 04:21:06;;;;;;;10.35;3.53;;;;;;;;;;5002121;28;20053;-64
2021/12/27 04:23:36;;;;;;;17.83;4.15;;;;;;;;;;5017888;28;20048;-68
2021/12/27 04:26:07;;;;;;;14.00;4.40;;;;;;;;;;5051661;28;20060;-67
2021/12/27 04:28:37;;;;;;;21.17;3.90;;;;;;;;;;5035218;28;20068;-66
2021/12/27 04:31:08;;;;;;;17.15;3.90;;;;;;;;;;5051282;28;20124;-64
2021/12/27 04:33:38;;;;;;;17.38;4.30;;;;;;;;;;5051300;28;20045;-66
2021/12/27 04:36:08;;;;;;;13.82;3.75;;;;;;;;;;5035062;28;20056;-65
2021/12/27 04:38:42;;;;;;;12.27;3.65;;;;;;;;;;5010954;28;20052;-65
2021/12/27 04:41:16;;;;;;;16.67;3.70;;;;;;;;;;4972229;28;20073;-70
2021/12/27 04:43:47;;;;;;;11.10;3.83;;;;;;;;;;4956755;28;20439;-67
2021/12/27 04:46:17;;;;;;;16.95;3.72;;;;;;;;;;4956629;28;20059;-65
2021/12/27 04:48:51;;;;;;;18.88;3.60;;;;;;;;;;4933440;29;20055;-64
2021/12/27 04:51:21;;;;;;;19.02;4.28;;;;;;;;;;4934052;29;20056;-65
2021/12/27 04:53:54;;;;;;;18.85;4.03;;;;;;;;;;4933571;29;20075;-65
2021/12/27 04:56:24;;;;;;;14.98;3.95;;;;;;;;;;4914635;29;20052;-64
2021/12/27 04:58:55;;;;;;;13.00;3.92;;;;;;;;;;4914509;29;20060;-65
2021/12/27 05:01:26;;;;;;;16.55;3.53;;;;;;;;;;4894188;29;20088;-66
2021/12/27 05:03:56;;;;;;;18.38;4.00;;;;;;;;;;4952556;28;20495;-65
2021/12/27 05:06:27;;;;;;;16.05;4.57;;;;;;;;;;4952658;28;20411;-64
2021/12/27 05:08:57;;;;;;;19.65;4.65;;;;;;;;;;4952469;28;20063;-65
2021/12/27 05:11:30;;;;;;;16.90;4.30;;;;;;;;;;4952372;28;20063;-70
2021/12/27 05:14:00;;;;;;;11.18;4.03;;;;;;;;;;4952448;28;20070;-65
2021/12/27 05:16:30;;;;;;;16.42;4.18;;;;;;;;;;4964020;28;20063;-65
2021/12/27 05:19:00;;;;;;;18.17;4.13;;;;;;;;;;4939514;28;20159;-67
2021/12/27 05:21:31;;;;;;;18.30;4.43;;;;;;;;;;4951874;28;20051;-65
2021/12/27 05:24:01;;;;;;;12.98;3.90;;;;;;;;;;4912586;29;20048;-65
2021/12/27 05:26:31;;;;;;;16.23;4.40;;;;;;;;;;4924071;29;20186;-67
2021/12/27 05:29:01;;;;;;;14.88;4.43;;;;;;;;;;4933126;29;20060;-66
2021/12/27 05:31:32;;;;;;;15.40;3.95;;;;;;;;;;4923299;29;20063;-66
2021/12/27 05:34:03;;;;;;;15.68;5.18;;;;;;;;;;4913422;29;20413;-66
2021/12/27 05:36:33;;;;;;;20.30;4.47;;;;;;;;;;4913453;29;20055;-65
2021/12/27 05:39:04;;;;;;;15.20;4.03;;;;;;;;;;4913545;29;20060;-67
2021/12/27 05:41:35;;;;;;;11.63;3.58;;;;;;;;;;4923189;29;20062;-68
2021/12/27 05:44:06;;;;;;;12.68;3.90;;;;;;;;;;4932328;29;20056;-64
2021/12/27 05:46:36;;;;;;;12.90;4.20;;;;;;;;;;4928994;29;20134;-64
2021/12/27 05:49:06;;;;;;;13.60;4.45;;;;;;;;;;4904086;29;20060;-65
2021/12/27 05:51:37;;;;;;;10.40;4.70;;;;;;;;;;4913016;29;20087;-68
2021/12/27 05:54:10;;;;;;;15.18;4.68;;;;;;;;;;4909775;29;20067;-66
2021/12/27 05:56:43;;;;;;;15.45;5.15;;;;;;;;;;4894864;29;20052;-65
2021/12/27 05:59:16;;;;;;;12.70;4.38;;;;;;;;;;4931789;29;20074;-65
2021/12/27 06:01:46;;;;;;;;;;;;;;;;;;4916614;29;20055;-66
2021/12/27 06:04:16;;;;;;;13.18;4.00;;;;;;;;;;4932204;29;19927;-65
2021/12/27 06:06:47;;;;;;;11.05;4.07;;;;;;;;;;4932470;29;20063;-65
2021/12/27 06:09:17;;;;;;;14.90;4.85;;;;;;;;;;4932363;29;20060;-65
2021/12/27 06:11:47;;;;;;;13.55;4.55;;;;;;;;;;4952652;28;20439;-66
2021/12/27 06:14:18;;;;;;;11.15;3.70;;;;;;;;;;4940877;28;20567;-66
2021/12/27 06:16:49;;;;;;;13.95;3.92;;;;;;;;;;4932012;29;20056;-65
2021/12/27 06:19:20;;;;;;;19.00;4.25;;;;;;;;;;4916631;29;20066;-65
2021/12/27 06:21:53;;;;;;;15.60;4.53;;;;;;;;;;4916967;29;20568;-67
2021/12/27 06:24:23;;;;;;;10.85;4.30;;;;;;;;;;4903964;28;20431;-65
2021/12/27 06:26:53;;;;;;;14.93;3.95;;;;;;;;;;4951100;29;20047;-65
2021/12/27 06:29:24;;;;;;;12.73;3.95;;;;;;;;;;4951290;28;20059;-67
2021/12/27 06:31:54;;;;;;;14.75;3.90;;;;;;;;;;4919145;29;20059;-66
2021/12/27 06:34:24;;;;;;;12.45;3.63;;;;;;;;;;4950621;28;20070;-65
2021/12/27 06:36:55;;;;;;;11.02;3.08;;;;;;;;;;4931946;29;20059;-69
2021/12/27 06:39:25;;;;;;;14.57;4.25;;;;;;;;;;4912449;29;20507;-67
2021/12/27 06:41:55;;;;;;;14.63;3.50;;;;;;;;;;4913006;29;20428;-66
2021/12/27 06:44:25;;;;;;;17.77;3.47;;;;;;;;;;4897540;29;20100;-66
2021/12/27 06:46:59;;;;;;;16.95;3.47;;;;;;;;;;4896977;29;20067;-70
2021/12/27 06:49:31;;;;;;;13.27;3.65;;;;;;;;;;4912183;29;20052;-68
2021/12/27 06:52:01;;;;;;;;;;;;;;;;;;4933588;28;20063;-65
2021/12/27 06:54:32;;;;;;;17.13;3.65;;;;;;;;;;4940586;28;19930;-65
2021/12/27 06:57:02;;;;;;;8.13;3.30;;;;;;;;;;4931607;29;20083;-65
2021/12/27 06:59:33;;;;;;;7.70;3.15;;;;;;;;;;4931331;29;20059;-68
2021/12/27 07:02:04;;;;;;;15.52;3.17;;;;;;;;;;4950495;28;20058;-65
2021/12/27 07:04:35;;;;;;;10.05;3.53;;;;;;;;;;4935878;28;20055;-65
2021/12/27 07:07:05;;;;;;;11.55;2.90;;;;;;;;;;4969935;28;20062;-65
2021/12/27 07:09:35;;;;;;;10.18;3.05;;;;;;;;;;4969943;28;20050;-65
2021/12/27 07:12:07;;;;;;;13.27;3.60;;;;;;;;;;4931022;29;20055;-66
2021/12/27 07:14:40;;;;;;;9.77;3.20;;;;;;;;;;4959751;28;20066;-65
2021/12/27 07:17:11;;;;;;;9.48;3.47;;;;;;;;;;4971168;28;20061;-66
2021/12/27 07:19:41;;;;;;;9.15;3.47;;;;;;;;;;5004805;28;20057;-67
2021/12/27 07:22:12;;;;;;;14.60;3.17;;;;;;;;;;4950299;28;20055;-66
2021/12/27 07:24:42;;;;;;;10.65;2.92;;;;;;;;;;4930729;29;20058;-66
2021/12/27 07:27:13;;;;;;;13.35;3.65;;;;;;;;;;4899874;29;20167;-66
2021/12/27 07:29:43;;;;;;;11.30;3.20;;;;;;;;;;4914987;29;20043;-66
2021/12/27 07:32:13;;;;;;;11.98;3.35;;;;;;;;;;4893092;29;20062;-67
2021/12/27 07:34:44;;;;;;;10.75;3.40;;;;;;;;;;4930886;29;20056;-77
2021/12/27 07:37:18;;;;;;;13.18;3.80;;;;;;;;;;4931060;29;20058;-65
2021/12/27 07:39:48;;;;;;;12.80;4.40;;;;;;;;;;4920918;29;20056;-66
2021/12/27 07:42:18;;;;;;;10.55;4.75;;;;;;;;;;4912178;29;20064;-66
2021/12/27 07:44:49;;;;;;;12.68;4.43;;;;;;;;;;4912282;29;20060;-66
2021/12/27 07:47:20;;;;;;;11.23;4.78;;;;;;;;;;4914542;29;20091;-68
2021/12/27 07:49:50;;;;;;;14.18;5.35;;;;;;;;;;4896446;29;20513;-66
2021/12/27 07:52:20;;;;;;;14.70;4.10;;;;;;;;;;4916260;29;20062;-66
2021/12/27 07:54:51;;;;;;;11.38;4.25;;;;;;;;;;4934465;29;20052;-66
2021/12/27 07:57:21;;;;;;;10.15;3.40;;;;;;;;;;4935019;29;20058;-66
2021/12/27 07:59:52;;;;;;;9.40;3.92;;;;;;;;;;4953435;29;20492;-66
2021/12/27 08:02:22;;;;;;;14.02;3.63;;;;;;;;;;4963366;28;20062;-66
2021/12/27 08:04:53;;;;;;;8.77;3.28;;;;;;;;;;4952021;29;20054;-65
2021/12/27 08:07:24;;;;;;;8.02;3.03;;;;;;;;;;4924894;29;20154;-65
2021/12/27 08:09:55;;;;;;;13.25;4.40;;;;;;;;;;4934354;29;20062;-67
2021/12/27 08:12:24;;;;;;;11.45;4.30;;;;;;;;;;4934493;29;20517;-66
2021/12/27 08:14:55;;;;;;;15.55;4.80;;;;;;;;;;4953378;29;20051;-67
2021/12/27 08:17:26;;;;;;;8.68;3.88;;;;;;;;;;4972488;28;20095;-72
2021/12/27 08:19:56;;;;;;;12.82;4.40;;;;;;;;;;4972719;28;20059;-66
2021/12/27 08:22:26;;;;;;;9.73;3.42;;;;;;;;;;4956396;28;20054;-65
2021/12/27 08:24:57;;;;;;;10.00;3.50;;;;;;;;;;4955528;28;20055;-65
2021/12/27 08:27:30;;;;;;;9.27;3.60;;;;;;;;;;4919592;29;20508;-66
2021/12/27 08:30:04;;;;;;;13.90;3.42;;;;;;;;;;4943799;29;20063;-68
2021/12/27 08:32:37;;;;;;;9.43;3.92;;;;;;;;;;4937512;29;20055;-65
2021/12/27 08:35:09;;;;;;;11.85;3.78;;;;;;;;;;4953217;29;20062;-66
2021/12/27 08:37:40;;;;;;;10.70;4.57;;;;;;;;;;4922655;29;20060;-71
2021/12/27 08:40:12;;;;;;;14.63;4.50;;;;;;;;;;4914991;29;20064;-66
2021/12/27 08:42:42;;;;;;;13.88;5.63;;;;;;;;;;4936291;29;20064;-66
2021/12/27 08:45:12;;;;;;;15.23;4.45;;;;;;;;;;4963758;28;20066;-66
2021/12/27 08:47:44;;;;;;;12.52;3.92;;;;;;;;;;4952184;29;20063;-67
2021/12/27 08:50:17;;;;;;;12.10;3.75;;;;;;;;;;4933573;29;20058;-66
2021/12/27 08:52:48;;;;;;;14.35;3.70;;;;;;;;;;4863859;29;20060;-73
2021/12/27 08:55:18;;;;;;;14.10;3.45;;;;;;;;;;4917964;29;20055;-68
2021/12/27 08:57:48;;;;;;;14.95;3.30;;;;;;;;;;4933188;29;20044;-68
2021/12/27 09:00:19;;;;;;;13.02;4.10;;;;;;;;;;4914388;29;20067;-67
2021/12/27 09:02:49;;;;;;;12.23;3.67;;;;;;;;;;4936898;29;20059;-67
2021/12/27 09:05:19;;;;;;;17.70;3.45;;;;;;;;;;4937164;29;20051;-67
2021/12/27 09:07:50;;;;;;;12.10;3.60;;;;;;;;;;4952674;29;20515;-67
2021/12/27 09:10:21;;;;;;;16.23;3.85;;;;;;;;;;4952891;29;20055;-66
2021/12/27 09:12:51;;;;;;;15.18;3.65;;;;;;;;;;4952544;29;20055;-72
2021/12/27 09:15:22;;;;;;;14.25;3.80;;;;;;;;;;4904313;29;20063;-67
2021/12/27 09:17:52;;;;;;;15.27;3.63;;;;;;;;;;4895034;29;20142;-67
2021/12/27 09:20:25;;;;;;;17.65;3.47;;;;;;;;;;4895423;29;20056;-67
2021/12/27 09:22:56;;;;;;;15.73;3.88;;;;;;;;;;4876336;29;20176;-66
2021/12/27 09:25:26;;;;;;;10.20;3.15;;;;;;;;;;4866727;29;20062;-68
2021/12/27 09:27:56;;;;;;;9.90;2.83;;;;;;;;;;4867684;29;20088;-66
2021/12/27 09:30:27;;;;;;;12.85;3.70;;;;;;;;;;4876304;29;20056;-67
2021/12/27 09:32:58;;;;;;;11.13;3.20;;;;;;;;;;4876490;29;20473;-67
2021/12/27 09:35:28;;;;;;;16.17;3.80;;;;;;;;;;4876583;29;20064;-67
2021/12/27 09:37:58;;;;;;;13.20;3.30;;;;;;;;;;4880268;29;20060;-67
2021/12/27 09:40:30;;;;;;;13.57;4.20;;;;;;;;;;4913888;29;20071;-67
2021/12/27 09:43:01;;;;;;;13.35;3.80;;;;;;;;;;4913839;29;20060;-66
2021/12/27 09:45:31;;;;;;;18.23;3.78;;;;;;;;;;4913788;29;20044;-67
2021/12/27 09:48:01;;;;;;;14.48;3.45;;;;;;;;;;4913758;29;20450;-66
2021/12/27 09:50:35;;;;;;;9.23;2.88;;;;;;;;;;4894719;29;20198;-66
2021/12/27 09:53:05;;;;;;;17.23;3.60;;;;;;;;;;4935362;28;20078;-67
2021/12/27 09:55:44;;;;;;;12.00;3.78;;;;;;;;;;4962961;28;20534;-67
2021/12/27 09:58:14;;;;;;;23.42;3.35;;;;;;;;;;4955205;28;20063;-66
2021/12/27 10:00:45;;;;;;;16.42;3.45;;;;;;;;;;4982042;28;20069;-70
2021/12/27 10:03:16;;;;;;;11.93;4.10;;;;;;;;;;5013219;28;20497;-67
2021/12/27 10:05:47;;;;;;;15.98;4.50;;;;;;;;;;5029649;28;20065;-66
2021/12/27 10:08:18;;;;;;;17.50;3.97;;;;;;;;;;5013356;28;20057;-66
2021/12/27 10:10:49;;;;;;;12.55;3.50;;;;;;;;;;4989860;28;20065;-67
2021/12/27 10:13:20;;;;;;;10.15;3.53;;;;;;;;;;4970280;28;20062;-71
2021/12/27 10:15:50;;;;;;;21.90;3.70;;;;;;;;;;4970378;28;20063;-67
2021/12/27 10:18:23;;;;;;;15.50;3.15;;;;;;;;;;4970138;28;20061;-66
2021/12/27 10:20:58;;;;;;;;;;;;;;;;;;4970806;28;20058;-65
2021/12/27 10:23:29;;;;;;;10.60;3.42;;;;;;;;;;4954624;28;19932;-65
2021/12/27 10:25:59;;;;;;;18.95;3.33;;;;;;;;;;4970408;28;20065;-66
2021/12/27 10:28:29;;;;;;;17.63;3.45;;;;;;;;;;4958195;28;20059;-66
2021/12/27 10:31:03;;;;;;;13.77;3.22;;;;;;;;;;4951520;29;20107;-65
2021/12/27 10:33:34;;;;;;;14.63;4.03;;;;;;;;;;4974491;28;20446;-66
2021/12/27 10:36:04;;;;;;;7.50;2.75;;;;;;;;;;4990006;28;20062;-67
2021/12/27 10:38:37;;;;;;;13.27;2.95;;;;;;;;;;4972917;28;20054;-66
2021/12/27 10:41:10;;;;;;;12.35;2.80;;;;;;;;;;4934381;29;20063;-66
2021/12/27 10:43:56;;;;;;;8.93;3.25;;;;;;;;;;4933811;28;20059;-66
2021/12/27 10:46:44;;;;;;;8.07;4.10;;;;;;;;;;4950014;28;20419;-74
2021/12/27 10:49:15;;;;;;;8.45;2.83;;;;;;;;;;4950291;28;20063;-66
2021/12/27 10:51:48;;;;;;;12.10;2.97;;;;;;;;;;4949847;28;20047;-65
2021/12/27 10:54:27;;;;;;;8.02;2.92;;;;;;;;;;4966133;28;20054;-66
2021/12/27 10:57:02;;;;;;;7.30;3.10;;;;;;;;;;4969391;28;20526;-66
2021/12/27 10:59:32;;;;;;;7.50;2.35;;;;;;;;;;4968924;28;20050;-77
2021/12/27 11:02:13;;;;;;;8.02;2.70;;;;;;;;;;4969202;28;20057;-70
2021/12/27 11:04:44;;;;;;;9.82;2.33;;;;;;;;;;4969763;28;20055;-65
2021/12/27 11:07:14;;;;;;;7.55;2.78;;;;;;;;;;4969097;28;20059;-66
2021/12/27 11:09:45;;;;;;;8.90;4.13;;;;;;;;;;4953087;28;20050;-65
2021/12/27 11:12:15;;;;;;;10.02;2.45;;;;;;;;;;4969198;28;20062;-64
2021/12/27 11:14:46;;;;;;;11.52;2.47;;;;;;;;;;4988371;28;20046;-64
2021/12/27 11:17:16;;;;;;;11.70;2.65;;;;;;;;;;4988340;28;20077;-64
2021/12/27 11:19:46;;;;;;;6.95;2.25;;;;;;;;;;5024330;28;20060;-65
2021/12/27 11:22:17;;;;;;;7.00;2.70;;;;;;;;;;5008922;28;21075;-65
2021/12/27 11:24:47;;;;;;;5.93;2.70;;;;;;;;;;5008015;28;20050;-65
2021/12/27 11:27:17;;;;;;;9.68;3.30;;;;;;;;;;5007627;28;20550;-66
2021/12/27 11:30:09;;;;;;;6.30;2.55;;;;;;;;;;4978710;28;20085;-69
2021/12/27 11:33:14;;;;;;;6.30;2.42;;;;;;;;;;4988203;28;20058;-66
2021/12/27 11:35:58;;;;;;;8.98;2.92;;;;;;;;;;4988330;28;20408;-65
2021/12/27 11:38:38;;;;;;;7.80;3.08;;;;;;;;;;4892440;28;2309405;-66
2021/12/27 11:41:31;;;;;;;6.95;2.90;;;;;;;;;;4988461;28;20469;-64
2021/12/27 11:44:07;;;;;;;8.07;2.45;;;;;;;;;;4969353;28;20054;-66
2021/12/27 11:46:47;;;;;;;8.25;3.30;;;;;;;;;;4953663;28;20404;-67
2021/12/27 11:49:38;;;;;;;9.20;2.92;;;;;;;;;;4955045;28;20051;-65
2021/12/27 11:52:14;;;;;;;9.18;3.15;;;;;;;;;;4956631;28;20400;-67
2021/12/27 11:54:58;;;;;;;6.43;2.45;;;;;;;;;;4988673;28;20062;-66
2021/12/27 11:57:53;;;;;;;8.15;2.45;;;;;;;;;;4988371;28;20050;-66
2021/12/27 12:00:30;;;;;;;6.65;2.67;;;;;;;;;;4956461;28;20046;-64
2021/12/27 12:03:03;;;;;;;6.90;2.20;;;;;;;;;;4972769;28;20081;-68
2021/12/27 12:05:49;;;;;;;7.53;2.33;;;;;;;;;;4989161;28;20062;-65
2021/12/27 12:08:31;;;;;;;7.22;2.83;;;;;;;;;;4988889;28;20081;-66
2021/12/27 12:11:06;;;;;;;8.40;2.47;;;;;;;;;;4988579;28;20050;-66
2021/12/27 12:13:44;;;;;;;9.52;2.63;;;;;;;;;;4988784;28;20061;-64
2021/12/27 12:16:17;;;;;;;7.68;2.65;;;;;;;;;;4965298;28;20054;-65
2021/12/27 12:18:53;;;;;;;6.30;2.40;;;;;;;;;;4985629;28;20545;-67
2021/12/27 12:21:39;;;;;;;8.50;2.50;;;;;;;;;;5035454;28;20057;-65
2021/12/27 12:24:12;;;;;;;12.55;3.20;;;;;;;;;;5047865;28;20456;-65
2021/12/27 12:26:54;;;;;;;9.18;3.03;;;;;;;;;;5065042;28;20067;-65
2021/12/27 12:29:45;;;;;;;6.95;2.88;;;;;;;;;;5087843;28;20084;-65
2021/12/27 12:32:17;;;;;;;7.05;3.15;;;;;;;;;;5031281;28;20052;-64
2021/12/27 12:34:47;;;;;;;5.63;3.20;;;;;;;;;;5051428;28;20057;-69
2021/12/27 12:37:19;;;;;;;9.18;3.17;;;;;;;;;;5011244;28;20541;-65
2021/12/27 12:39:52;;;;;;;9.90;3.13;;;;;;;;;;4991691;28;20566;-66
2021/12/27 12:42:25;;;;;;;9.77;3.15;;;;;;;;;;4991852;28;20059;-65
2021/12/27 12:45:05;;;;;;;7.18;3.30;;;;;;;;;;4991940;28;20054;-68
2021/12/27 12:47:40;;;;;;;10.30;3.33;;;;;;;;;;4992014;28;20050;-66
2021/12/27 12:50:15;;;;;;;7.72;3.20;;;;;;;;;;4990704;28;20061;-66
2021/12/27 12:52:59;;;;;;;7.53;2.83;;;;;;;;;;4991671;28;20046;-66
2021/12/27 12:55:38;;;;;;;5.97;2.58;;;;;;;;;;4991636;28;20557;-66
2021/12/27 12:58:08;;;;;;;8.35;2.97;;;;;;;;;;4959265;28;20423;-67
2021/12/27 13:00:39;;;;;;;8.15;2.90;;;;;;;;;;4991470;28;20454;-66
2021/12/27 13:03:14;;;;;;;7.15;2.72;;;;;;;;;;4991496;28;20058;-67
2021/12/27 13:05:57;;;;;;;6.95;2.65;;;;;;;;;;4991806;28;20042;-65
2021/12/27 13:08:28;;;;;;;7.50;2.58;;;;;;;;;;4991340;28;20149;-66
2021/12/27 13:11:03;;;;;;;8.95;3.20;;;;;;;;;;5009685;28;20531;-65
2021/12/27 13:13:34;;;;;;;5.78;2.65;;;;;;;;;;5010879;28;20054;-66
2021/12/27 13:16:05;;;;;;;6.75;2.85;;;;;;;;;;5010801;28;20042;-68
2021/12/27 13:18:36;;;;;;;4.05;2.22;;;;;;;;;;5069605;28;20053;-68
2021/12/27 13:21:10;;;;;;;9.82;3.28;;;;;;;;;;5070638;28;20409;-65
2021/12/27 13:23:43;;;;;;;7.28;2.30;;;;;;;;;;5070323;28;20056;-64
2021/12/27 13:26:16;;;;;;;6.18;2.60;;;;;;;;;;5070532;28;20037;-66
2021/12/27 13:28:51;;;;;;;7.53;2.53;;;;;;;;;;5010365;28;20553;-65
2021/12/27 13:31:24;;;;;;;10.90;2.50;;;;;;;;;;5027969;28;20064;-66
2021/12/27 13:34:07;;;;;;;6.75;2.47;;;;;;;;;;5030284;28;20506;-66
2021/12/27 13:36:43;;;;;;;11.32;3.42;;;;;;;;;;5030322;28;20064;-65
2021/12/27 13:39:15;;;;;;;9.48;2.67;;;;;;;;;;5030159;28;20054;-65
2021/12/27 13:42:05;;;;;;;6.95;2.80;;;;;;;;;;5009532;28;20049;-66
2021/12/27 13:44:37;;;;;;;8.00;2.53;;;;;;;;;;4960831;28;20054;-64
2021/12/27 13:47:11;;;;;;;6.05;2.45;;;;;;;;;;4961703;28;20108;-65
2021/12/27 13:49:57;;;;;;;5.45;2.03;;;;;;;;;;5010444;28;20046;-66
2021/12/27 13:52:28;;;;;;;5.05;2.28;;;;;;;;;;4973902;28;20545;-64
2021/12/27 13:54:59;;;;;;;4.40;2.15;;;;;;;;;;4990679;28;20410;-65
2021/12/27 13:57:34;;;;;;;4.88;2.17;;;;;;;;;;4990326;28;20059;-66
2021/12/27 14:00:06;;;;;;;6.93;2.15;;;;;;;;;;4990660;28;20070;-65
2021/12/27 14:02:44;;;;;;;13.43;2.85;;;;;;;;;;4990598;28;20050;-66
2021/12/27 14:05:15;;;;;;;7.15;2.08;;;;;;;;;;4991289;28;20520;-64
2021/12/27 14:07:45;;;;;;;7.25;1.98;;;;;;;;;;5000413;28;20072;-64
2021/12/27 14:10:20;;;;;;;8.07;2.58;;;;;;;;;;5029458;28;20057;-69
2021/12/27 14:13:00;;;;;;;11.40;3.03;;;;;;;;;;5029474;28;20120;-65
2021/12/27 14:15:37;;;;;;;8.65;3.22;;;;;;;;;;5029626;28;20052;-66
2021/12/27 14:18:12;;;;;;;4.25;2.65;;;;;;;;;;5009923;28;20418;-66
2021/12/27 14:21:00;;;;;;;5.57;2.72;;;;;;;;;;4993081;28;20413;-66
2021/12/27 14:23:33;;;;;;;7.40;2.35;;;;;;;;;;5009728;28;20097;-68
2021/12/27 14:26:11;;;;;;;5.10;1.88;;;;;;;;;;5009771;28;20050;-66
2021/12/27 14:28:42;;;;;;;5.97;2.55;;;;;;;;;;4961024;28;20073;-65
2021/12/27 14:31:25;;;;;;;6.07;1.98;;;;;;;;;;5030848;28;20053;-66
2021/12/27 14:33:56;;;;;;;7.05;2.00;;;;;;;;;;5048989;28;20049;-66
2021/12/27 14:36:27;;;;;;;4.82;2.30;;;;;;;;;;5016017;28;20053;-64
2021/12/27 14:38:57;;;;;;;4.50;2.10;;;;;;;;;;5032775;28;20057;-65
2021/12/27 14:41:27;;;;;;;5.88;2.63;;;;;;;;;;5032939;28;20064;-65
2021/12/27 14:43:58;;;;;;;7.38;2.33;;;;;;;;;;4999671;28;20132;-66
2021/12/27 14:46:29;;;;;;;6.32;2.08;;;;;;;;;;5015975;28;20052;-64
2021/12/27 14:48:59;;;;;;;4.07;1.90;;;;;;;;;;5071963;28;20063;-65
2021/12/27 14:51:31;;;;;;;5.22;2.15;;;;;;;;;;5074101;28;20055;-65
2021/12/27 14:54:01;;;;;;;4.10;2.33;;;;;;;;;;5091479;28;20047;-68
2021/12/27 14:56:32;;;;;;;6.30;2.17;;;;;;;;;;5048037;28;20049;-66
2021/12/27 14:59:02;;;;;;;10.82;3.88;;;;;;;;;;5032434;28;20417;-64
2021/12/27 15:01:34;;;;;;;4.63;1.95;;;;;;;;;;5008559;28;20050;-68
2021/12/27 15:04:05;;;;;;;5.35;1.95;;;;;;;;;;4977054;28;20053;-66
2021/12/27 15:06:36;;;;;;;5.63;1.80;;;;;;;;;;5008538;28;20058;-62
2021/12/27 15:09:06;;;;;;;7.85;1.85;;;;;;;;;;4992957;28;20107;-63
2021/12/27 15:11:36;;;;;;;5.22;2.22;;;;;;;;;;5009179;28;20477;-64
2021/12/27 15:14:07;;;;;;;6.15;1.67;;;;;;;;;;5008945;28;20126;-67